»·PEaware :: N72C KALW-8W5

N72C :: KALW-8W5

FLIGHT INFORMATION

Flight Status: Arrived
Operator: Privately registered:
United States
More flights under this callsign
Pilot: Charles C. (26995)
Aircraft: SOCATA TBM-900
(TBM9)
More flights by this aircraft type
Origin: KALW Walla Walla Regl
United States
Destination: 8W5 Apex Airpark
United States
More flights between these airports :: More routes between these airports
Route: +WALLA1 YKM J20 SEA
File this flight plan on PilotEdge
Remarks:
Altitude:
(Current/Filed)
26,000ft
Speed:
(Current/Filed)
290kts
Departed: 27-Sep-20 11:54 AM
Arrived: 27-Sep-20 12:48 PM
Distance/Time
Traveled:
205nm/0:54
Distance/Time
To Go:
Arrived

Flight Plot

Page will automatically refresh every two minutes.

Flight plan parsing failed; only flown route is shown


Map Options




Map Legend


Flown Route
Filed Route
Departure Airport
Arrival Airport
Navaid (VOR, NDB)
Fix

Horizontal Profiles

Position Reports

Time Latitude Longitude Heading Altitude Ground
Speed
27-Sep-20 11:46 46.094623 -118.278636 0 1197ft 0kts
27-Sep-20 11:47 46.094623 -118.278636 305 1197ft 0kts
27-Sep-20 11:48 46.094623 -118.278636 305 1197ft 0kts
27-Sep-20 11:49 46.094623 -118.278636 305 1197ft 0kts
27-Sep-20 11:50 46.094623 -118.278636 305 1197ft 0kts
27-Sep-20 11:51 46.096939 -118.276807 36 1201ft 22kts
27-Sep-20 11:52 46.098009 -118.276071 0 1202ft 3kts
27-Sep-20 11:53 46.098532 -118.277753 217 1197ft 18kts
27-Sep-20 11:53 46.076758 -118.297035 204 1812ft 156kts
27-Sep-20 11:55 46.081764 -118.346904 334 4315ft 158kts
27-Sep-20 11:56 46.104671 -118.394319 277 6248ft 160kts
27-Sep-20 11:56 46.114032 -118.448148 294 7463ft 178kts
27-Sep-20 11:57 46.135470 -118.510367 289 9175ft 172kts
27-Sep-20 11:58 46.146728 -118.578609 285 11076ft 177kts
27-Sep-20 11:59 46.161664 -118.646868 288 12857ft 183kts
27-Sep-20 12:00 46.178127 -118.717088 288 14744ft 190kts
27-Sep-20 12:01 46.195189 -118.789486 288 17028ft 194kts
27-Sep-20 12:02 46.212709 -118.864032 288 19104ft 200kts
27-Sep-20 12:03 46.230818 -118.941356 288 20970ft 207kts
27-Sep-20 12:04 46.249430 -119.021114 288 22729ft 212kts
27-Sep-20 12:05 46.268468 -119.103003 288 24285ft 218kts
27-Sep-20 12:06 46.287944 -119.187092 288 25675ft 224kts
27-Sep-20 12:07 46.308135 -119.274601 288 26559ft 245kts
27-Sep-20 12:08 46.331234 -119.375158 288 26551ft 278kts
27-Sep-20 12:09 46.356290 -119.484807 288 26543ft 292kts
27-Sep-20 12:10 46.381991 -119.597893 288 26541ft 297kts
27-Sep-20 12:11 46.407811 -119.711973 287 26540ft 299kts
27-Sep-20 12:12 46.433868 -119.828193 289 26545ft 306kts
27-Sep-20 12:13 46.460199 -119.945754 291 26548ft 305kts
27-Sep-20 12:14 46.486162 -120.062029 290 26545ft 303kts
27-Sep-20 12:15 46.512223 -120.179743 288 26549ft 308kts
27-Sep-20 12:16 46.538480 -120.299321 287 26549ft 311kts
27-Sep-20 12:17 46.564731 -120.419361 287 26549ft 312kts
27-Sep-20 12:18 46.609663 -120.526993 305 26549ft 313kts
27-Sep-20 12:19 46.659484 -120.631303 305 26549ft 313kts
27-Sep-20 12:20 46.709028 -120.735475 304 26549ft 313kts
27-Sep-20 12:21 46.758677 -120.840260 304 26547ft 313kts
27-Sep-20 12:22 46.808141 -120.945053 304 26544ft 313kts
27-Sep-20 12:23 46.857489 -121.049996 304 26541ft 313kts
27-Sep-20 12:24 46.907591 -121.156946 304 25892ft 330kts
27-Sep-20 12:25 46.960438 -121.270222 304 24609ft 339kts
27-Sep-20 12:26 47.011629 -121.380366 304 24487ft 316kts
27-Sep-20 12:27 47.060415 -121.485741 304 24493ft 308kts
27-Sep-20 12:28 47.108208 -121.589388 304 24504ft 305kts
27-Sep-20 12:29 47.155562 -121.692474 303 24509ft 304kts
27-Sep-20 12:30 47.203501 -121.797229 303 24508ft 304kts
27-Sep-20 12:31 47.251971 -121.903553 303 22816ft 325kts
27-Sep-20 12:32 47.301784 -122.013268 303 20361ft 317kts
27-Sep-20 12:33 47.349693 -122.119183 303 18269ft 307kts
27-Sep-20 12:34 47.395987 -122.221889 303 14370ft 302kts
27-Sep-20 12:35 47.439245 -122.319602 298 12012ft 249kts
27-Sep-20 12:36 47.472068 -122.398841 309 12026ft 224kts
27-Sep-20 12:37 47.515125 -122.466481 318 11998ft 220kts
27-Sep-20 12:38 47.554488 -122.535366 307 9851ft 222kts
27-Sep-20 12:39 47.591674 -122.607232 307 7594ft 231kts
27-Sep-20 12:40 47.632060 -122.685180 307 4457ft 240kts
27-Sep-20 12:41 47.673775 -122.749089 319 2686ft 211kts
27-Sep-20 12:42 47.719756 -122.762970 16 2421ft 114kts
27-Sep-20 12:43 47.713973 -122.744772 179 1527ft 127kts
27-Sep-20 12:44 47.687314 -122.766691 175 847ft 109kts
27-Sep-20 12:45 47.703564 -122.741758 146 1413ft 95kts
27-Sep-20 12:46 47.676892 -122.731193 173 913ft 83kts
27-Sep-20 12:47 47.655099 -122.733492 183 511ft 36kts
27-Sep-20 12:48 47.655920 -122.732927 325 516ft 0kts
27-Sep-20 12:49 47.655919 -122.732926 320 516ft 0kts
27-Sep-20 12:50 47.655919 -122.732926 320 516ft 0kts
27-Sep-20 12:51 47.655919 -122.732926 320 516ft 0kts
27-Sep-20 12:52 47.655919 -122.732926 320 516ft 0kts
27-Sep-20 12:53 47.655919 -122.732926 320 516ft 0kts
27-Sep-20 12:54 47.655919 -122.732926 320 516ft 0kts
27-Sep-20 12:55 47.655919 -122.732926 320 516ft 0kts
27-Sep-20 12:56 47.655919 -122.732926 320 516ft 0kts
27-Sep-20 12:57 47.655919 -122.732926 320 516ft 0kts
27-Sep-20 12:58 47.655919 -122.732926 320 516ft 0kts
27-Sep-20 12:59 47.655919 -122.732926 320 516ft 0kts
27-Sep-20 13:00 47.655919 -122.732926 320 516ft 0kts
27-Sep-20 13:01 47.655919 -122.732926 320 516ft 0kts
27-Sep-20 13:02 47.655919 -122.732926 320 516ft 0kts

Navigation Log

Ident Type
Flight plan parsing failed, navigation log unavailable